Pelly Crossing, Canada
Current Conditions -  °F | °C
As of 12:00 AM on Friday 28 Nov 2014 (Local Time) from CYMA Reporting Station
Few Clouds Few Clouds  
Wind Chill: -29°   Ceiling: Unl
Heat Index: -29°   Visibility: 20mi
Dew Point: -35°   Wind: 0mph
Humidity: 75%   Direction: NA
Pressure: 30.45"   Gusts: NA
Location:  62.83°N, 136.58°W
Report Text: CYMA 280800Z 00000KT 20SM FEW013 FEW025 M34/M37 A3045 RMK ST1SC1 SLP388
Loading
Personal Weather Stations






























Interactive Weather Map New forecast layout! Learn more

10-Day Weather Forecast

Advertisements
Track Severe Weather on mobile